createdAt,value
2019-06-20T00:00:51.455Z,24.25
2019-06-20T00:15:51.542Z,24.24
2019-06-20T00:30:51.296Z,24.21
2019-06-20T00:45:51.270Z,24.17
2019-06-20T01:00:51.308Z,24.10
2019-06-20T01:15:52.750Z,24.04
2019-06-20T01:30:59.721Z,24.04
2019-06-20T01:45:50.640Z,23.99
2019-06-20T02:00:51.942Z,23.95
2019-06-20T02:15:51.021Z,23.91
2019-06-20T02:30:51.495Z,23.85
2019-06-20T02:45:51.022Z,23.89
2019-06-20T03:00:57.010Z,24.01
2019-06-20T03:15:51.423Z,23.95
2019-06-20T03:30:51.413Z,24.10
2019-06-20T03:45:52.373Z,24.37
2019-06-20T04:00:54.782Z,24.66
2019-06-20T04:15:51.387Z,24.96
2019-06-20T04:30:50.695Z,24.76
2019-06-20T04:45:55.034Z,25.10
2019-06-20T05:00:50.712Z,25.74
2019-06-20T05:15:53.032Z,26.35
2019-06-20T05:30:51.154Z,26.71
2019-06-20T05:45:51.233Z,27.08
2019-06-20T06:00:51.142Z,27.58
2019-06-20T06:15:50.436Z,28.24
2019-06-20T06:30:56.542Z,28.89
2019-06-20T06:45:51.456Z,29.54
2019-06-20T07:00:54.331Z,30.16
2019-06-20T07:15:50.841Z,30.33
2019-06-20T07:30:50.838Z,31.11
2019-06-20T07:46:02.002Z,31.33
2019-06-20T08:00:50.765Z,31.60
2019-06-20T08:15:51.147Z,32.25
2019-06-20T08:30:51.175Z,32.77
2019-06-20T08:45:51.165Z,33.07
2019-06-20T09:15:50.656Z,33.13
2019-06-20T09:30:51.887Z,33.29
2019-06-20T09:45:51.425Z,33.00
2019-06-20T10:00:50.917Z,33.17
2019-06-20T10:15:55.665Z,33.25
2019-06-20T10:30:51.176Z,33.01
2019-06-20T10:45:57.622Z,33.39
2019-06-20T11:00:51.865Z,33.29
2019-06-20T11:15:51.368Z,33.46
2019-06-20T11:31:00.437Z,32.01
2019-06-20T11:45:54.100Z,30.91
2019-06-20T12:01:03.107Z,30.11
2019-06-20T12:15:50.592Z,28.65
2019-06-20T12:30:50.595Z,27.25
2019-06-20T12:45:51.721Z,25.76
2019-06-20T13:00:50.612Z,24.97
2019-06-20T13:15:51.124Z,23.73
2019-06-20T13:30:52.254Z,22.03
2019-06-20T13:45:52.136Z,21.29
2019-06-20T14:00:54.703Z,21.18
2019-06-20T14:15:57.433Z,21.09
2019-06-20T14:30:52.499Z,21.29
2019-06-20T14:45:51.306Z,21.75
2019-06-20T15:00:52.177Z,22.34
2019-06-20T15:15:51.085Z,23.43
2019-06-20T15:30:50.965Z,24.92
2019-06-20T15:45:56.405Z,25.55
2019-06-20T16:00:49.921Z,25.79
2019-06-20T16:15:51.321Z,25.46
2019-06-20T16:30:51.368Z,25.49
2019-06-20T16:45:51.328Z,25.61
2019-06-20T17:00:51.419Z,25.53
2019-06-20T17:15:50.728Z,25.49
2019-06-20T17:30:56.735Z,24.95
2019-06-20T17:45:50.065Z,25.32
2019-06-20T18:00:50.694Z,25.42
2019-06-20T18:15:51.142Z,25.37
2019-06-20T18:30:51.276Z,25.44
2019-06-20T18:45:50.971Z,25.49
2019-06-20T19:00:51.056Z,25.52
2019-06-20T19:15:51.220Z,25.22
2019-06-20T19:30:53.789Z,25.31
2019-06-20T19:45:51.264Z,24.98
2019-06-20T20:00:51.088Z,23.36
2019-06-20T20:15:50.582Z,22.34
2019-06-20T20:30:53.553Z,21.72
2019-06-20T20:45:50.551Z,21.36
2019-06-20T21:15:56.783Z,20.82
2019-06-20T21:30:50.777Z,20.65
2019-06-20T21:45:50.815Z,20.37
2019-06-20T22:00:54.262Z,20.18
2019-06-20T22:15:56.786Z,20.05
2019-06-20T22:30:53.481Z,19.97
2019-06-20T22:45:56.638Z,19.90
2019-06-20T23:00:50.661Z,19.74
2019-06-20T23:15:51.044Z,19.57
2019-06-20T23:30:51.073Z,19.44
2019-06-20T23:45:50.955Z,19.34
